Chandalar Lake, Alaska
Current Conditions -  °F | °C
As of 3:16 AM on Sunday 21 Dec 2014 (Local Time) from PARC Reporting Station
Clear Clear  
Wind Chill: -16°   Ceiling: Unl
Heat Index: -2°   Visibility: 10mi
Dew Point: -18°   Wind: 7mph
Humidity: 46%   Direction: 60°ENE
Pressure: 29.28"   Gusts: NA
Location:  67.5°N, 148.48°W
Report Text: PARC 211216Z AUTO 06006KT 10SM CLR M19/M28 A2928 RMK AO1
Loading
Personal Weather Stations






























Interactive Weather Map New forecast layout! Learn more

10-Day Weather Forecast

Advertisements
Track Severe Weather on mobile